Latest Weather Observations for Mount Gambier

IDS60801

Issued at 11:05 pm CST Friday 1 August 2014 (issued every 30 minutes, with the page automatically refreshed every 10 minutes)

About weather observations | Map of weather stations | Latest weather observations for SA | Other Formats
Station Details ID: 026021 Name: MOUNT GAMBIER AERO Lat: -37.75 Lon: 140.77 Height: 63.0 m
Data from the previous 72 hours. | See also: Recent months at Mount Gambier
Date/Time
CST
Temp
°C
App
Temp
°C
Dew
Point
Rel
Hum
%
Delta-T
°C
Wind Press
QNH
hPa
Press
MSL
hPa
Rain
since 9 am
mm
Dir
 
Spd
km/h
Gust
km/h
Spd
kts
Gust
kts
01/11:00pm 2.2 -1.7 1.1 92 0.4 WNW 11 13 6 7 1026.0 - 2.4
01/10:30pm 2.4 -1.2 0.8 89 0.6 WNW 9 11 5 6 1025.8 - 2.4
01/10:00pm 3.1 -0.8 1.3 88 0.7 WNW 11 13 6 7 1025.4 - 2.4
01/09:30pm 4.8 1.3 1.2 77 1.4 SW 9 17 5 9 1025.0 - 2.4
01/09:00pm 5.6 1.8 1.6 75 1.6 W 11 17 6 9 1024.3 1024.4 2.4
01/08:30pm 5.2 1.3 1.1 75 1.6 SSW 11 13 6 7 1023.9 - 2.4
01/08:00pm 5.6 1.2 0.4 69 2.0 SW 13 17 7 9 1023.1 - 2.4
01/07:30pm 5.6 1.3 0.7 71 1.9 SW 13 17 7 9 1022.7 - 2.4
01/07:00pm 6.1 1.8 1.0 70 2.0 WSW 13 17 7 9 1022.2 - 2.4
01/06:30pm 6.8 1.8 1.3 68 2.2 SW 17 22 9 12 1021.3 - 2.4
01/06:00pm 6.4 1.3 0.8 67 2.2 SW 17 22 9 12 1020.8 1020.9 2.4
01/05:30pm 6.8 1.6 2.2 72 1.9 SW 19 28 10 15 1020.1 - 2.4
01/05:00pm 6.9 1.8 2.8 75 1.7 WSW 19 28 10 15 1019.6 - 2.4
01/04:30pm 8.0 0.1 -1.8 50 3.7 SW 30 43 16 23 1018.7 - 2.2
01/04:05pm 8.5 0.4 -0.4 53 3.5 SW 32 54 17 29 1018.1 - 2.2
01/04:00pm 9.1 1.2 1.3 58 3.2 SW 32 41 17 22 1017.9 - 2.2
01/03:30pm 8.2 0.7 1.3 62 2.8 SSW 30 37 16 20 1017.5 - 2.2
01/03:00pm 8.0 -0.7 -0.5 55 3.3 WSW 35 56 19 30 1016.9 1017.0 2.2
01/02:44pm 10.0 2.0 0.4 51 3.9 SW 32 52 17 28 1016.3 - 2.2
01/02:30pm 8.8 0.0 1.5 60 3.0 SW 37 52 20 28 1016.0 - 2.2
01/02:07pm 9.6 1.7 2.0 59 3.2 SW 33 63 18 34 1015.4 - 2.2
01/02:00pm 9.3 1.5 1.9 60 3.1 SW 32 44 17 24 1015.3 - 2.2
01/01:42pm 8.9 1.2 2.2 63 2.8 SW 32 54 17 29 1015.0 - 2.2
01/01:30pm 8.3 0.0 2.3 66 2.5 SW 35 50 19 27 1014.8 - 2.2
01/01:01pm 10.1 0.2 1.8 56 3.5 SW 43 61 23 33 1014.0 - 2.2
01/01:00pm 10.1 0.1 2.4 59 3.3 SW 44 61 24 33 1014.0 - 2.2
01/12:30pm 7.2 -2.6 2.1 70 2.1 SW 43 69 23 37 1013.8 - 2.2
01/12:25pm 9.1 0.1 2.2 62 2.9 SW 39 69 21 37 1013.5 - 2.0
01/12:16pm 9.7 2.7 2.1 59 3.2 SW 28 48 15 26 1013.2 - 2.0
01/12:00pm 8.2 0.5 2.5 67 2.4 SW 32 46 17 25 1013.3 1013.3 2.0
01/11:30am 7.7 1.0 3.8 76 1.7 SW 28 39 15 21 1012.7 - 1.8
01/11:00am 7.6 0.2 2.0 67 2.3 SSW 30 39 16 21 1012.1 - 1.2
01/10:30am 5.6 0.0 3.7 87 0.8 SW 22 32 12 17 1011.6 - 1.2
01/10:04am 5.0 -6.0 3.1 87 0.8 SW 50 70 27 38 1010.7 - 1.2
01/10:00am 5.4 -1.1 2.7 83 1.1 W 26 56 14 30 1010.6 - 0.8
01/09:30am 4.7 -1.4 3.0 89 0.7 S 24 35 13 19 1008.9 - 0.6
01/09:25am 4.5 -2.0 2.8 89 0.7 SSW 26 35 14 19 1009.2 - 0.6
01/09:08am 5.3 -4.5 3.4 87 0.8 SW 44 72 24 39 1009.1 - 0.4
01/09:00am 6.7 0.6 2.9 77 1.6 WSW 24 43 13 23 1008.2 1008.3 19.8
01/08:30am 7.0 1.6 2.2 71 2.0 SW 20 30 11 16 1006.9 - 19.8
01/08:00am 5.6 -1.7 2.4 80 1.3 SSW 30 39 16 21 1005.8 - 19.8
01/07:30am 6.2 -0.5 3.4 82 1.2 SW 28 54 15 29 1005.2 - 19.8
01/07:06am 6.0 -1.2 3.1 82 1.2 WSW 30 61 16 33 1004.6 - 19.6
01/07:00am 6.1 -1.0 3.3 82 1.2 SW 30 37 16 20 1004.0 - 19.2
01/06:49am 6.3 -1.3 2.7 78 1.5 W 32 57 17 31 1003.7 - 19.2
01/06:30am 5.2 -0.5 2.8 84 1.0 W 22 32 12 17 1002.8 - 19.2
01/06:08am 5.0 -2.3 2.3 83 1.1 W 30 48 16 26 1002.5 - 19.2
01/06:00am 4.9 -4.1 2.2 83 1.1 WSW 39 48 21 26 1002.4 1002.5 19.2
01/05:57am 5.0 -4.1 2.0 81 1.2 WSW 39 48 21 26 1002.5 - 19.2
01/05:50am 5.5 -7.4 1.8 77 1.5 W 59 80 32 43 1002.6 - 19.2
01/05:48am 6.2 -2.2 1.5 72 1.9 W 35 80 19 43 1002.7 - 19.0
01/05:30am 6.2 -0.4 1.8 73 1.8 W 26 33 14 18 1001.7 - 19.0
01/05:10am 5.9 -1.0 2.5 79 1.4 W 28 46 15 25 1001.6 - 19.0
01/05:00am 5.7 -2.2 2.3 79 1.4 W 33 46 18 25 1001.5 - 19.0
01/04:55am 5.8 -1.2 2.1 77 1.5 WNW 28 46 15 25 1001.5 - 19.0
01/04:30am 5.2 -1.4 2.3 81 1.2 W 26 33 14 18 1001.6 - 18.6
01/04:00am 5.8 -2.7 3.2 83 1.1 W 37 57 20 31 1001.5 - 18.6
01/03:48am 5.7 -1.8 3.3 84 1.0 W 32 50 17 27 1001.7 - 18.6
01/03:30am 5.2 -1.2 3.3 87 0.8 NNW 26 35 14 19 1000.7 - 17.4
01/03:00am 5.0 -1.3 3.6 91 0.6 NNW 26 35 14 19 1000.9 1000.9 17.4
01/02:30am 5.2 0.0 3.5 89 0.7 N 20 30 11 16 1001.4 - 17.4
01/02:16am 5.3 0.2 3.1 86 0.9 NNW 19 26 10 14 1001.8 - 17.4
01/02:00am 5.7 -2.0 3.3 84 1.0 WNW 33 57 18 31 1002.4 - 17.2
01/01:59am 5.8 -1.8 2.9 82 1.2 WNW 32 57 17 31 1002.5 - 17.2
01/01:32am 6.1 -1.6 2.5 78 1.5 WNW 32 50 17 27 1002.6 - 16.6
01/01:30am 6.2 -0.7 2.6 78 1.5 WNW 28 39 15 21 1002.6 - 16.4
01/01:00am 6.4 -0.2 2.3 75 1.7 WNW 26 39 14 21 1002.3 - 16.4
01/12:30am 5.5 0.6 4.1 91 0.6 WNW 19 26 10 14 1002.1 - 16.4
01/12:16am 5.3 -0.6 3.9 91 0.6 W 24 41 13 22 1002.5 - 16.4
01/12:06am 5.2 -0.8 3.3 87 0.8 W 24 48 13 26 1002.8 - 16.4
01/12:00am 5.1 0.4 3.4 89 0.7 WSW 17 22 9 12 1003.1 1003.2 16.2
 
Date/Time
CST
Temp
°C
App
Temp
°C
Dew
Point
Rel
Hum
%
Delta-T
°C
Wind Press
QNH
hPa
Press
MSL
hPa
Rain
since 9 am
mm
Dir
 
Spd
km/h
Gust
km/h
Spd
kts
Gust
kts
31/11:39pm 5.3 -1.5 2.9 84 1.0 W 28 48 15 26 1002.7 - 15.8
31/11:35pm 5.4 -1.9 2.5 81 1.2 W 30 48 16 26 1002.9 - 15.6
31/11:30pm 4.7 -2.9 2.8 87 0.8 W 32 43 17 23 1003.2 - 15.4
31/11:17pm 4.7 -3.2 2.5 86 0.9 W 33 56 18 30 1003.5 - 15.0
31/11:14pm 5.3 -1.8 3.4 87 0.8 W 30 41 16 22 1003.0 - 14.4
31/11:00pm 6.3 0.0 3.7 83 1.1 W 26 41 14 22 1002.5 - 13.0
31/10:30pm 6.8 -2.3 1.9 71 2.0 W 39 59 21 32 1002.3 - 12.8
31/10:28pm 7.0 -2.5 1.6 68 2.2 W 41 59 22 32 1002.4 - 12.8
31/10:22pm 7.7 -3.2 1.1 63 2.7 W 48 59 26 32 1002.4 - 12.8
31/10:05pm 8.3 0.2 -0.3 54 3.4 WNW 32 50 17 27 1002.0 - 12.8
31/10:00pm 8.0 0.3 -0.1 56 3.2 WNW 30 39 16 21 1001.9 - 12.8
31/09:30pm 7.7 0.6 1.3 64 2.6 WNW 28 41 15 22 1002.0 - 12.8
31/09:00pm 7.3 1.2 0.2 60 2.8 WNW 22 30 12 16 1002.1 1002.1 12.8
31/08:30pm 6.9 -0.2 1.2 67 2.3 WNW 28 33 15 18 1001.9 - 12.8
31/08:00pm 7.3 -0.4 2.5 71 2.0 W 32 37 17 20 1001.7 - 12.8
31/07:30pm 5.8 0.1 2.7 80 1.3 W 22 26 12 14 1001.4 - 12.8
31/07:25pm 5.7 0.0 2.6 80 1.3 W 22 30 12 16 1001.4 - 12.8
31/07:07pm 6.6 -4.5 2.5 75 1.7 W 50 69 27 37 1001.4 - 12.8
31/07:00pm 7.0 2.2 2.7 74 1.8 NW 17 22 9 12 1001.0 - 12.2
31/06:30pm 7.1 1.2 1.5 67 2.3 WNW 22 32 12 17 1000.7 - 12.0
31/06:00pm 7.9 1.3 -0.2 56 3.2 WNW 24 37 13 20 1000.2 1000.2 12.0
31/05:30pm 7.9 -1.3 1.0 61 2.8 WNW 39 52 21 28 999.8 - 12.0
31/05:10pm 8.0 -0.4 1.4 63 2.7 W 35 61 19 33 1000.0 - 11.8
31/05:00pm 8.8 0.8 1.9 62 2.9 W 33 48 18 26 999.3 - 11.8
31/04:47pm 8.9 0.1 1.2 58 3.2 W 37 56 20 30 999.2 - 11.8
31/04:30pm 9.0 0.5 0.7 56 3.4 WNW 35 50 19 27 999.1 - 11.8
31/04:15pm 8.8 0.6 2.7 65 2.6 WNW 35 43 19 23 998.6 - 11.8
31/04:09pm 8.8 -3.8 0.4 55 3.4 WNW 56 67 30 36 998.7 - 11.8
31/04:00pm 7.9 -0.6 3.2 72 2.0 W 37 57 20 31 998.7 - 11.8
31/03:35pm 9.4 -0.1 -0.6 49 3.9 W 39 57 21 31 998.3 - 11.8
31/03:30pm 9.2 -1.0 0.0 52 3.7 WNW 43 57 23 31 998.2 - 11.8
31/03:16pm 9.5 0.0 -0.5 49 4.0 WNW 39 61 21 33 998.2 - 11.8
31/03:00pm 9.0 -0.2 1.0 57 3.3 W 39 56 21 30 998.1 998.1 11.8
31/02:30pm 8.4 -2.6 3.1 69 2.3 W 50 65 27 35 998.1 - 11.8
31/02:17pm 8.8 1.0 5.0 77 1.7 W 35 56 19 30 998.0 - 11.6
31/02:06pm 8.8 0.6 4.6 75 1.9 W 37 48 20 26 997.8 - 11.6
31/01:57pm 8.9 2.7 4.2 72 2.1 WNW 26 61 14 33 997.8 - 11.6
31/01:30pm 8.3 0.9 4.2 75 1.8 NW 32 43 17 23 997.5 - 11.6
31/01:00pm 7.9 -1.2 3.8 75 1.8 WNW 41 74 22 40 997.1 - 11.6
31/12:43pm 7.4 -1.4 5.4 87 0.9 W 41 63 22 34 998.0 - 11.4
31/12:30pm 7.8 -0.3 5.4 85 1.1 W 37 50 20 27 998.1 - 10.8
31/12:06pm 8.0 0.4 6.0 87 0.9 W 35 54 19 29 997.8 - 10.0
31/12:00pm 8.1 0.1 5.9 86 1.0 W 37 54 20 29 997.5 997.5 9.8
31/11:47am 8.1 -0.2 5.9 86 1.0 W 39 59 21 32 998.0 - 9.4
31/11:34am 8.2 0.4 6.7 90 0.7 W 37 57 20 31 997.6 - 8.8
31/11:30am 8.2 0.8 6.9 91 0.6 W 35 44 19 24 997.7 - 8.6
31/11:22am 8.2 0.0 6.7 90 0.7 W 39 52 21 28 997.3 - 8.2
31/11:03am 8.2 -2.1 6.7 90 0.7 W 50 69 27 37 997.0 - 7.6
31/10:41am 9.1 0.4 7.6 90 0.7 W 43 56 23 30 997.2 - 7.2
31/10:29am 9.0 -0.3 7.5 90 0.7 W 46 63 25 34 997.1 - 6.8
31/10:21am 9.8 1.2 8.8 93 0.5 W 44 63 24 34 996.5 - 6.6
31/10:18am 9.8 0.8 8.8 93 0.5 W 46 54 25 29 996.6 - 6.6
31/10:13am 10.0 3.1 9.0 93 0.5 WNW 35 54 19 29 996.5 - 6.4
31/10:00am 9.9 3.0 8.7 92 0.6 WNW 35 50 19 27 996.0 - 5.6
31/09:49am 9.5 1.7 8.3 92 0.6 WNW 39 48 21 26 995.6 - 5.2
31/09:41am 10.4 -1.8 9.0 91 0.7 W 63 85 34 46 996.0 - 1.4
31/09:39am 12.9 3.6 10.4 85 1.3 NNW 50 74 27 40 995.9 - 0.0
31/09:30am 13.8 4.2 9.3 74 2.3 NNW 50 80 27 43 993.9 - 0.0
31/09:00am 13.9 3.3 8.6 70 2.7 NNW 54 74 29 40 994.3 994.4 1.2
31/08:30am 13.4 3.3 8.9 74 2.3 NNW 52 76 28 41 995.1 - 1.2
31/08:00am 13.3 4.4 9.2 76 2.1 NNW 46 72 25 39 995.1 - 1.2
31/07:30am 12.9 5.0 9.4 79 1.8 NNW 41 63 22 34 995.9 - 1.2
31/07:05am 12.3 5.9 9.2 81 1.6 NNW 33 52 18 28 996.6 - 1.2
31/07:00am 12.4 5.2 9.1 80 1.7 NNW 37 52 20 28 996.7 - 1.2
31/06:35am 12.1 5.3 9.4 83 1.4 NNW 35 56 19 30 996.9 - 1.2
31/06:30am 12.3 5.2 9.6 83 1.4 NNW 37 50 20 27 996.9 - 1.2
31/06:00am 12.4 6.2 9.5 82 1.5 N 32 54 17 29 997.6 997.6 1.2
31/05:30am 12.5 6.5 10.2 86 1.2 NNW 32 54 17 29 997.8 - 1.2
31/05:08am 12.3 6.1 10.2 87 1.1 NNW 33 52 18 28 998.3 - 1.2
31/05:00am 12.2 6.0 10.1 87 1.1 NNW 33 44 18 24 998.5 - 1.2
31/04:41am 12.2 5.7 10.5 89 0.9 NNW 35 50 19 27 999.0 - 1.2
31/04:30am 12.0 4.9 10.9 93 0.6 NNW 39 57 21 31 999.1 - 1.2
31/04:22am 12.3 5.5 10.6 89 0.9 NNW 37 57 20 31 999.2 - 0.8
31/04:19am 12.7 5.7 10.0 84 1.4 NNW 37 57 20 31 999.1 - 0.8
31/04:00am 12.7 6.4 9.6 81 1.6 NNW 33 50 18 27 999.5 - 0.8
31/03:30am 12.6 6.5 9.9 83 1.4 NNW 32 50 17 27 1000.3 - 0.8
31/03:13am 12.7 5.3 9.8 82 1.5 NNW 39 57 21 31 1000.6 - 0.8
31/03:00am 12.6 4.9 10.3 86 1.2 NNW 41 56 22 30 1000.9 1000.9 0.8
31/02:30am 12.9 5.8 9.4 79 1.8 NNW 37 56 20 30 1001.5 - 0.8
31/02:12am 13.0 6.8 9.9 81 1.6 NNW 33 54 18 29 1001.8 - 0.8
31/02:00am 12.7 5.8 10.4 86 1.2 NW 37 56 20 30 1002.2 - 0.8
31/01:53am 13.0 6.1 10.3 84 1.4 NNW 37 56 20 30 1002.5 - 0.8
31/01:35am 13.7 6.2 9.4 75 2.2 NNW 39 57 21 31 1002.4 - 0.8
31/01:30am 13.8 5.9 9.5 75 2.2 NNW 41 57 22 31 1002.4 - 0.8
31/01:00am 13.8 5.5 9.3 74 2.3 NNW 43 61 23 33 1002.6 - 0.8
31/12:30am 13.4 5.3 9.9 79 1.8 NNW 43 61 23 33 1003.1 - 0.8
31/12:04am 13.8 6.3 9.5 75 2.2 NNW 39 57 21 31 1003.7 - 0.8
31/12:00am 13.8 6.7 9.7 76 2.1 NNW 37 54 20 29 1003.7 1003.8 0.8
 
Date/Time
CST
Temp
°C
App
Temp
°C
Dew
Point
Rel
Hum
%
Delta-T
°C
Wind Press
QNH
hPa
Press
MSL
hPa
Rain
since 9 am
mm
Dir
 
Spd
km/h
Gust
km/h
Spd
kts
Gust
kts
30/11:48pm 13.7 7.4 9.8 77 2.0 NNW 33 52 18 28 1004.1 - 0.8
30/11:30pm 13.5 7.3 10.0 79 1.8 NNW 33 48 18 26 1004.4 - 0.8
30/11:23pm 13.6 7.5 9.9 78 1.9 NNW 32 50 17 27 1004.6 - 0.8
30/11:00pm 13.6 7.4 10.1 79 1.8 NNW 33 50 18 27 1005.1 - 0.8
30/10:30pm 13.7 6.8 10.3 80 1.8 NNW 37 56 20 30 1005.7 - 0.8
30/10:17pm 13.6 7.2 10.6 82 1.6 NNW 35 56 19 30 1005.8 - 0.8
30/10:00pm 13.3 7.3 10.8 85 1.3 NNW 33 48 18 26 1006.2 - 0.8
30/09:30pm 13.1 6.1 9.8 80 1.7 NNW 37 56 20 30 1006.8 - 0.8
30/09:06pm 13.1 7.7 10.8 86 1.2 NNW 30 48 16 26 1007.0 - 0.8
30/09:00pm 13.3 7.3 10.8 85 1.3 NNW 33 48 18 26 1007.1 1007.2 0.8
30/08:30pm 13.4 6.3 10.9 85 1.3 NNW 39 57 21 31 1007.4 - 0.8
30/08:07pm 13.2 6.1 10.9 86 1.2 NNW 39 69 21 37 1007.6 - 0.8
30/08:00pm 13.1 6.7 10.8 86 1.2 NNW 35 56 19 30 1007.5 - 0.8
30/07:57pm 12.9 6.6 11.2 89 0.9 NNW 35 54 19 29 1007.7 - 0.8
30/07:55pm 12.9 6.3 11.2 89 0.9 NNW 37 54 20 29 1007.7 - 0.8
30/07:30pm 13.2 7.2 10.9 86 1.2 NNW 33 48 18 26 1007.8 - 0.6
30/07:00pm 13.3 7.4 11.0 86 1.2 NNW 33 48 18 26 1008.0 - 0.6
30/06:32pm 13.1 7.2 10.4 84 1.4 NNW 32 50 17 27 1008.1 - 0.6
30/06:30pm 13.2 7.3 10.3 82 1.5 NNW 32 44 17 24 1008.0 - 0.6
30/06:00pm 13.3 8.1 10.2 81 1.6 NNW 28 39 15 21 1008.2 1008.3 0.6
30/05:30pm 13.2 7.7 10.7 85 1.3 NW 30 39 16 21 1008.5 - 0.6
30/05:04pm 14.3 8.0 8.8 69 2.8 NW 32 50 17 27 1008.3 - 0.6
30/05:00pm 14.3 8.0 9.0 70 2.7 NW 32 43 17 23 1008.3 - 0.6
30/04:30pm 14.3 7.5 9.2 71 2.6 NW 35 48 19 26 1008.2 - 0.6
30/04:00pm 14.7 8.3 9.3 70 2.8 NW 33 52 18 28 1008.3 - 0.6
30/03:30pm 15.3 7.3 9.1 66 3.2 NW 41 63 22 34 1008.4 - 0.6
30/03:24pm 15.4 8.6 9.2 66 3.2 NW 35 57 19 31 1008.4 - 0.6
30/03:00pm 15.2 7.7 9.6 69 2.9 NW 39 52 21 28 1008.5 1008.6 0.6
30/02:39pm 14.6 7.6 10.0 74 2.4 NW 37 56 20 30 1008.6 - 0.6
30/02:30pm 14.3 7.8 10.5 78 2.0 NW 35 48 19 26 1008.7 - 0.6
30/02:00pm 15.0 7.5 9.4 69 2.9 NW 39 57 21 31 1008.7 - 0.6
30/01:51pm 15.0 7.6 9.8 71 2.7 NW 39 57 21 31 1008.7 - 0.6
30/01:30pm 15.1 6.9 9.7 70 2.8 NW 43 56 23 30 1009.0 - 0.6
30/01:00pm 15.7 8.6 10.8 72 2.6 NW 39 57 21 31 1009.3 - 0.6
30/12:54pm 15.8 8.7 10.9 72 2.6 NW 39 57 21 31 1009.4 - 0.6
30/12:30pm 15.3 8.5 12.0 81 1.8 WNW 39 56 21 30 1009.9 - 0.6
30/12:08pm 14.5 8.1 12.1 85 1.3 WNW 37 56 20 30 1010.4 - 0.6
30/12:00pm 14.3 8.4 12.5 89 1.0 NW 35 50 19 27 1010.6 1010.7 0.6
30/11:29am 14.0 7.7 12.3 89 0.9 NW 37 63 20 34 1010.7 - 0.2
30/11:18am 14.3 8.8 12.3 88 1.1 NW 33 50 18 27 1010.8 - 0.0
30/11:09am 14.8 9.3 11.8 82 1.6 NW 32 50 17 27 1010.9 - 0.0
30/11:00am 15.0 8.8 11.3 78 2.0 WNW 35 48 19 26 1010.9 - 0.0
30/10:30am 14.7 8.6 11.7 82 1.6 WNW 35 54 19 29 1011.3 - 0.0
30/10:22am 14.5 8.3 11.3 81 1.7 WNW 35 54 19 29 1011.4 - 0.0
30/10:00am 14.7 8.5 11.3 80 1.8 NW 35 46 19 25 1011.3 - 0.0
30/09:49am 14.3 7.7 11.5 83 1.5 NW 37 52 20 28 1011.2 - 0.0
30/09:43am 14.0 8.4 11.6 85 1.3 NW 32 50 17 27 1011.2 - 0.0
30/09:34am 13.7 8.7 12.2 91 0.8 NW 30 39 16 21 1011.3 - 0.0
30/09:25am 14.1 8.6 11.7 85 1.3 WNW 32 50 17 27 1011.3 - 0.0
30/09:00am 13.6 8.1 11.7 88 1.0 NW 32 39 17 21 1011.4 1011.5 0.8
30/08:27am 13.4 7.5 11.1 86 1.2 NW 33 50 18 27 1011.3 - 0.8
30/08:23am 13.3 8.0 11.2 87 1.1 NW 30 50 16 27 1011.3 - 0.8
30/08:13am 13.0 8.5 11.5 91 0.8 NW 26 33 14 18 1011.2 - 0.4
30/08:00am 12.7 9.0 11.4 92 0.7 NNW 22 28 12 15 1011.2 - 0.4
30/07:30am 12.2 8.8 11.1 93 0.6 NNW 20 28 11 15 1011.2 - 0.4
30/07:00am 11.9 8.3 10.7 92 0.6 NNW 20 28 11 15 1011.0 - 0.4
30/06:30am 11.7 7.8 10.7 94 0.5 NNW 22 32 12 17 1010.7 - 0.4
30/06:00am 12.1 8.3 11.0 93 0.6 NNW 22 28 12 15 1010.7 1010.8 0.4
30/05:30am 12.3 8.9 11.2 93 0.6 NNW 20 32 11 17 1010.6 - 0.4
30/05:25am 12.3 9.1 11.4 94 0.5 NNW 19 30 10 16 1010.6 - 0.4
30/05:07am 12.6 8.1 11.3 92 0.7 NW 26 33 14 18 1010.7 - 0.4
30/05:00am 12.6 7.9 10.7 88 1.0 NW 26 33 14 18 1010.6 - 0.4
30/04:30am 12.7 7.5 10.4 86 1.2 NW 28 37 15 20 1010.7 - 0.4
30/04:00am 12.3 9.4 11.0 92 0.7 NNW 17 24 9 13 1010.6 - 0.4
30/03:30am 12.3 9.2 10.4 88 1.0 NNW 17 26 9 14 1011.0 - 0.4
30/03:00am 11.6 8.4 9.8 89 0.9 NW 17 22 9 12 1011.3 1011.4 0.4
30/02:30am 11.6 8.4 9.8 89 0.9 NW 17 22 9 12 1011.4 - 0.4
30/02:00am 11.8 8.1 10.0 89 0.9 WNW 20 30 11 16 1011.6 - 0.4
30/01:30am 12.0 8.0 10.3 89 0.9 NW 22 32 12 17 1011.7 - 0.4
30/01:00am 11.9 7.7 9.9 87 1.0 WNW 22 32 12 17 1011.9 - 0.4
30/12:47am 12.2 7.0 10.1 87 1.1 WNW 28 39 15 21 1011.9 - 0.4
30/12:33am 12.6 7.2 10.9 89 0.9 WNW 30 50 16 27 1012.0 - 0.4
30/12:32am 12.7 7.7 10.8 88 1.0 WNW 28 39 15 21 1012.1 - 0.4
30/12:30am 12.7 7.7 11.0 89 0.9 WNW 28 39 15 21 1012.1 - 0.4
30/12:00am 12.6 7.3 11.1 91 0.8 WNW 30 37 16 20 1012.0 1012.0 0.4
 
Date/Time
CST
Temp
°C
App
Temp
°C
Dew
Point
Rel
Hum
%
Delta-T
°C
Wind Press
QNH
hPa
Press
MSL
hPa
Rain
since 9 am
mm
Dir
 
Spd
km/h
Gust
km/h
Spd
kts
Gust
kts
29/11:44pm 12.7 6.9 10.8 88 1.0 WNW 32 46 17 25 1011.9 - 0.4
29/11:30pm 13.0 7.0 10.9 87 1.1 WNW 33 54 18 29 1011.9 - 0.4
29/11:28pm 13.0 7.8 11.5 91 0.8 WNW 30 52 16 28 1011.9 - 0.4
29/11:24pm 13.3 8.1 11.6 89 0.9 WNW 30 41 16 22 1011.7 - 0.4

Other Formats:

Comma delimited format used in spreadsheet applications
http://www.bom.gov.au/fwo/IDS60801/IDS60801.94821.axf

JavaScript Object Notation format (JSON) in row-major order
http://www.bom.gov.au/fwo/IDS60801/IDS60801.94821.json